LFLB Airport Information

Runway Information
Runway 18 Length 6628 ft width 148 ft
Elevation 769 ft Threshold 755 ft Heading 176
Runway 36 Length 6628 ft Width 148 ft
Elevation 778 ft Threshold 460 ft Heading 356
Airport Frequencies
Type APP Name CHAMBERY A Frequency 123.7 MHZ
Type ATIS Name CHAMBERY A Frequency 124.575 MHZ
Type TWR Name CHAMBERY T Frequency 118.3 MHZ
Airport Navaids
Airport Weather Information & NOTAM
ADDS - METARS form results

(0327 UTC 18 November 2018)
Data provider http://aviationweather.gov/metar/data/
 
METAR text: LFLB 180300Z AUTO VRB02KT 9999 SCT028 04/01 Q1020 NOSIG
Conditions at: LFLB (CHAMBERY/AIX BAI, FR) observed 0300 UTC 18 November 2018
Temperature: 4.0°C (39°F)
Dewpoint: 1.0°C (34°F) [RH = 81%]
Pressure (altimeter): 30.12 inches Hg (1020.0 mb)
Winds: variable direction winds at 2 MPH (2 knots; 1.0 m/s)
Visibility: 6 or more miles (10+ km)
Ceiling: at least 12,000 feet AGL
Clouds: scattered clouds at 2800 feet AGL
Weather: no significant weather observed at this time

METAR text: LFLB 180230Z AUTO 03009KT 9999 FEW029 05/01 Q1021 NOSIG
Conditions at: LFLB (CHAMBERY/AIX BAI, FR) observed 0230 UTC 18 November 2018
Temperature: 5.0°C (41°F)
Dewpoint: 1.0°C (34°F) [RH = 75%]
Pressure (altimeter): 30.15 inches Hg (1021.0 mb)
Winds: from the NNE (30 degrees) at 10 MPH (9 knots; 4.6 m/s)
Visibility: 6 or more miles (10+ km)
Ceiling: at least 12,000 feet AGL
Clouds: few clouds at 2900 feet AGL
Weather: no significant weather observed at this time

Forecast for: LFLB (CHAMBERY/AIX BAI, FR)
Text: TAF LFLB 171700Z 1718/1818 36009KT 9999 SCT025
Forecast period: 1800 UTC 17 November 2018 to 1800 UTC 18 November 2018
Forecast type: FROM: standard forecast or significant change
Winds: from the N (360 degrees) at 10 MPH (9 knots; 4.6 m/s)
Visibility: 6 or more miles 10+ km)
Ceiling: at least 12,000 feet AGL
Clouds: scattered clouds at 2500 feet AGL
Weather: no significant weather forecast for this period
Text: PROB40 1718/1810 BKN023
Forecast period: 1800 UTC 17 November 2018 to 1000 UTC 18 November 2018
Forecast type: PROBABLE: 40 percent likelihood of the following during this time
Visibility: missing
Ceiling: 2300 feet AGL
Clouds: broken clouds at 2300 feet AGL
Weather: no significant weather forecast for this period